Time;durP1;ratioP1;P1;durP2;ratioP2;P2;SDS_P1;SDS_P2;PMS_P1;PMS_P2;Temp;Humidity;BMP_temperature;BMP_pressure;BME280_temperature;BME280_humidity;BME280_pressure;Samples;Min_cycle;Max_cycle;Signal;HPM_P1;HPM_P2
2022/08/22 00:01:01;;;;;;;7.68;2.67;;;;;;;15.56;77.81;101522.19;5068601;28;20040;-66
2022/08/22 00:03:38;;;;;;;6.78;2.70;;;;;;;15.57;77.90;101520.31;5066977;28;20069;-66
2022/08/22 00:06:39;;;;;;;6.00;2.55;;;;;;;15.59;77.46;101520.22;5066968;28;20035;-66
2022/08/22 00:09:14;;;;;;;6.50;3.17;;;;;;;15.57;77.52;101518.47;5043927;28;20136;-65
2022/08/22 00:12:05;;;;;;;6.43;3.05;;;;;;;15.57;77.42;101523.97;5049584;28;20082;-67
2022/08/22 00:14:40;;;;;;;5.13;3.45;;;;;;;15.56;77.71;101521.31;5068094;28;20031;-67
2022/08/22 00:17:28;;;;;;;5.88;2.80;;;;;;;15.59;77.55;101523.81;5067892;28;20045;-67
2022/08/22 00:20:02;;;;;;;8.75;2.90;;;;;;;15.60;78.44;101525.56;5078791;28;20032;-66
2022/08/22 00:22:46;;;;;;;4.05;2.50;;;;;;;15.59;78.33;101518.34;5071427;28;20478;-66
2022/08/22 00:25:32;;;;;;;5.43;2.80;;;;;;;15.58;77.98;101522.09;5068333;28;20499;-67
2022/08/22 00:28:12;;;;;;;6.13;3.17;;;;;;;15.56;78.59;101529.53;5059868;28;20503;-66
2022/08/22 00:30:56;;;;;;;9.57;3.35;;;;;;;15.59;77.63;101525.69;5067863;28;20440;-67
2022/08/22 00:33:45;;;;;;;6.68;3.15;;;;;;;15.57;78.14;101523.06;5067636;28;20059;-66
2022/08/22 00:36:29;;;;;;;9.18;3.17;;;;;;;15.57;78.38;101517.56;5065073;28;20109;-66
2022/08/22 00:39:32;;;;;;;3.45;3.00;;;;;;;15.58;78.05;101516.59;5066708;28;20044;-66
2022/08/22 00:42:20;;;;;;;6.10;2.92;;;;;;;15.58;78.22;101511.09;5058459;28;20048;-65
2022/08/22 00:45:01;;;;;;;8.20;3.90;;;;;;;15.56;79.55;101524.94;5087274;28;20036;-66
2022/08/22 00:47:43;;;;;;;6.53;2.95;;;;;;;15.58;79.03;101519.34;5087199;28;20063;-66
2022/08/22 00:50:32;;;;;;;4.38;3.03;;;;;;;15.59;78.82;101525.69;5087627;28;20566;-67
2022/08/22 00:53:09;;;;;;;6.70;3.20;;;;;;;15.57;79.66;101514.81;5064822;28;20054;-68
2022/08/22 00:55:56;;;;;;;6.22;3.38;;;;;;;15.57;79.35;101525.78;5065589;28;20066;-66
2022/08/22 00:58:52;;;;;;;7.05;3.47;;;;;;;15.58;79.22;101524.81;5080532;28;20115;-66
2022/08/22 01:01:25;;;;;;;8.85;3.33;;;;;;;15.56;79.73;101519.44;5045807;28;20124;-66
2022/08/22 01:04:13;;;;;;;5.07;3.00;;;;;;;15.56;79.37;101527.66;5046964;28;20507;-67
2022/08/22 01:07:11;;;;;;;4.72;3.15;;;;;;;15.56;79.33;101521.31;5052813;28;20522;-67
2022/08/22 01:09:57;;;;;;;7.45;3.20;;;;;;;15.56;79.39;101522.19;5066187;28;20484;-66
2022/08/22 01:12:41;;;;;;;6.75;3.15;;;;;;;15.53;80.45;101527.94;5061365;28;20552;-68
2022/08/22 01:15:10;;;;;;;6.78;3.30;;;;;;;15.52;81.06;101517.06;5066892;28;20044;-66
2022/08/22 01:17:54;;;;;;;9.93;3.40;;;;;;;15.52;81.08;101519.81;5064117;28;20037;-66
2022/08/22 01:20:29;;;;;;;6.78;3.60;;;;;;;15.51;80.71;101520.81;5066627;28;20051;-66
2022/08/22 01:23:13;;;;;;;4.97;3.08;;;;;;;15.50;80.99;101517.22;5063590;28;20166;-66
2022/08/22 01:25:59;;;;;;;6.68;3.38;;;;;;;15.51;80.86;101512.59;5065336;28;20460;-66
2022/08/22 01:29:02;;;;;;;9.23;3.40;;;;;;;15.52;80.24;101515.22;5065483;28;20139;-67
2022/08/22 01:32:01;;;;;;;8.70;4.15;;;;;;;15.53;80.57;101521.59;5065193;28;20036;-66
2022/08/22 01:34:57;;;;;;;6.43;3.53;;;;;;;15.51;80.79;101512.59;5046606;28;20554;-67
2022/08/22 01:37:43;;;;;;;6.18;3.90;;;;;;;15.48;81.97;101521.97;5058225;28;20052;-66
2022/08/22 01:40:36;;;;;;;9.30;4.65;;;;;;;15.48;80.67;101516.50;5071355;28;20047;-67
2022/08/22 01:43:08;;;;;;;9.23;4.30;;;;;;;15.48;81.21;101516.50;5070432;28;20398;-66
2022/08/22 01:45:59;;;;;;;7.63;3.97;;;;;;;15.51;80.42;101518.94;5065104;28;20107;-66
2022/08/22 01:48:40;;;;;;;6.53;3.90;;;;;;;15.50;80.87;101513.59;5065921;28;20586;-66
2022/08/22 01:51:27;;;;;;;10.05;4.63;;;;;;;15.47;80.75;101514.72;5063839;28;20384;-66
2022/08/22 01:54:08;;;;;;;8.63;4.05;;;;;;;15.48;80.91;101510.09;5045172;28;20401;-66
2022/08/22 01:56:40;;;;;;;12.15;4.45;;;;;;;15.48;81.06;101510.09;5053690;28;20396;-66
2022/08/22 01:59:09;;;;;;;8.33;4.67;;;;;;;15.49;81.51;101514.63;5066029;28;20070;-66
2022/08/22 02:01:56;;;;;;;6.90;4.05;;;;;;;15.49;81.11;101509.13;5064725;28;20036;-68
2022/08/22 02:04:36;;;;;;;5.32;3.17;;;;;;;15.49;81.83;101512.75;5066026;28;20037;-66
2022/08/22 02:07:05;;;;;;;6.38;3.60;;;;;;;15.48;81.77;101507.34;5052699;28;20032;-67
2022/08/22 02:09:37;;;;;;;7.20;4.00;;;;;;;15.48;81.56;101507.34;5073680;28;20455;-66
2022/08/22 02:12:33;;;;;;;7.72;4.43;;;;;;;15.51;80.89;101515.34;5069395;28;20426;-66
2022/08/22 02:15:04;;;;;;;6.32;3.53;;;;;;;15.49;81.39;101510.00;5051478;28;20159;-66
2022/08/22 02:17:47;;;;;;;7.55;3.72;;;;;;;15.48;81.33;101505.50;5064308;28;20127;-67
2022/08/22 02:20:34;;;;;;;10.25;3.95;;;;;;;15.52;81.43;101506.97;5066481;28;20091;-66
2022/08/22 02:23:05;;;;;;;6.20;3.30;;;;;;;15.51;81.83;101510.72;5062671;28;20128;-66
2022/08/22 02:25:45;;;;;;;9.27;3.75;;;;;;;15.49;82.52;101504.50;5063289;28;20112;-67
2022/08/22 02:28:27;;;;;;;6.70;3.83;;;;;;;15.49;81.45;101511.88;5064430;28;20498;-66
2022/08/22 02:31:24;;;;;;;9.55;4.60;;;;;;;15.49;81.83;101504.50;5065909;28;20506;-66
2022/08/22 02:33:55;;;;;;;6.82;3.50;;;;;;;15.49;82.59;101503.66;5065468;28;20036;-69
2022/08/22 02:36:28;;;;;;;13.18;5.03;;;;;;;15.46;82.46;101495.66;5063220;28;20036;-66
2022/08/22 02:38:58;;;;;;;;;;;;;;;15.51;80.15;101499.75;5065133;28;20621;-66
2022/08/22 02:42:01;;;;;;;8.73;4.60;;;;;;;15.48;81.38;101497.28;5062068;28;20256;-66
2022/08/22 02:44:37;;;;;;;6.07;4.55;;;;;;;15.47;82.05;101501.00;5043893;28;20057;-66
2022/08/22 02:47:24;;;;;;;9.93;4.75;;;;;;;15.46;83.01;101495.66;5045265;28;20029;-66
2022/08/22 02:50:01;;;;;;;9.38;4.47;;;;;;;15.44;82.52;101500.41;5044287;28;20033;-66
2022/08/22 02:52:56;;;;;;;7.82;4.82;;;;;;;15.43;82.90;101499.50;5054571;28;20115;-69
2022/08/22 02:55:51;;;;;;;9.25;4.60;;;;;;;15.45;82.13;101494.78;5049280;28;20610;-68
2022/08/22 02:58:38;;;;;;;8.82;4.60;;;;;;;15.45;81.60;101503.03;5063323;28;20081;-67
2022/08/22 03:01:32;;;;;;;8.90;3.97;;;;;;;15.45;82.29;101502.16;5069516;28;20422;-67
2022/08/22 03:04:16;;;;;;;9.23;3.83;;;;;;;15.46;82.09;101495.66;5068250;28;20484;-66
2022/08/22 03:07:03;;;;;;;9.90;4.28;;;;;;;15.46;81.96;101499.28;5068602;28;20698;-66
2022/08/22 03:09:34;;;;;;;7.38;4.10;;;;;;;15.46;82.57;101501.16;5068660;28;20051;-66
2022/08/22 03:12:06;;;;;;;9.57;4.82;;;;;;;15.45;82.93;101499.41;5066472;28;20040;-67
2022/08/22 03:14:46;;;;;;;8.70;5.50;;;;;;;15.46;82.04;101502.00;5069305;28;20032;-66
2022/08/22 03:17:29;;;;;;;7.28;4.70;;;;;;;15.44;82.50;101497.66;5051138;28;20306;-67
2022/08/22 03:20:08;;;;;;;7.40;5.20;;;;;;;15.41;82.66;101498.78;5068017;28;20041;-66
2022/08/22 03:22:55;;;;;;;9.48;4.78;;;;;;;15.42;82.29;101496.91;5066359;28;20048;-66
2022/08/22 03:25:29;;;;;;;6.82;4.97;;;;;;;15.39;82.56;101491.66;5075940;28;20040;-67
2022/08/22 03:28:18;;;;;;;8.45;5.50;;;;;;;15.36;82.72;101476.34;5067392;28;20040;-66
2022/08/22 03:31:10;;;;;;;11.07;5.95;;;;;;;15.36;82.00;101478.22;5051553;28;20043;-67
2022/08/22 03:33:35;;;;;;;11.52;5.90;;;;;;;15.30;83.05;101480.47;5057926;28;20093;-68
2022/08/22 03:36:22;;;;;;;9.52;5.88;;;;;;;15.26;83.37;101476.25;5068510;28;20817;-67
2022/08/22 03:39:07;;;;;;;8.35;5.97;;;;;;;15.23;82.47;101471.00;5046077;28;20089;-66
2022/08/22 03:41:56;;;;;;;8.50;5.70;;;;;;;15.20;82.75;101468.53;5055652;28;20079;-66
2022/08/22 03:44:39;;;;;;;8.35;5.80;;;;;;;15.17;82.54;101474.25;5075909;28;20032;-69
2022/08/22 03:47:45;;;;;;;10.50;6.05;;;;;;;15.15;82.51;101472.63;5072426;28;20036;-66
2022/08/22 03:50:45;;;;;;;9.55;6.25;;;;;;;15.11;81.99;101474.78;5065647;28;20048;-66
2022/08/22 03:53:26;;;;;;;10.02;6.97;;;;;;;15.04;82.88;101468.03;5045636;28;20032;-67
2022/08/22 03:56:16;;;;;;;11.20;7.00;;;;;;;15.01;82.54;101471.00;5074422;28;20041;-67
2022/08/22 03:59:29;;;;;;;12.82;7.00;;;;;;;14.94;82.76;101470.66;5066975;28;20041;-67
2022/08/22 04:02:35;;;;;;;9.57;6.68;;;;;;;14.87;82.93;101463.91;5067858;28;20520;-66
2022/08/22 04:05:33;;;;;;;12.30;7.13;;;;;;;14.81;83.47;101461.66;5062600;28;20056;-67
2022/08/22 04:08:23;;;;;;;11.02;6.15;;;;;;;14.77;83.05;101462.91;5064641;28;20082;-66
2022/08/22 04:11:14;;;;;;;7.88;6.00;;;;;;;14.74;82.66;101471.38;5066767;28;20140;-67
2022/08/22 04:14:07;;;;;;;7.50;5.57;;;;;;;14.67;82.47;101467.38;5066139;28;20097;-66
2022/08/22 04:16:51;;;;;;;;;;;;;;;14.68;81.04;101472.72;5068531;28;20040;-67
2022/08/22 04:19:26;;;;;;;9.27;5.47;;;;;;;14.58;82.47;101468.09;5074627;28;19923;-68
2022/08/22 04:22:23;;;;;;;10.48;6.32;;;;;;;14.56;82.52;101486.53;5071738;28;20119;-68
2022/08/22 04:25:02;;;;;;;10.65;6.82;;;;;;;14.52;82.67;101489.50;5067602;28;20041;-66
2022/08/22 04:27:54;;;;;;;12.77;6.55;;;;;;;14.51;82.78;101485.03;5061171;28;20124;-66
2022/08/22 04:30:47;;;;;;;19.08;8.05;;;;;;;14.53;83.16;101490.38;5047901;28;20425;-66
2022/08/22 04:33:37;;;;;;;14.57;8.13;;;;;;;14.56;83.68;101489.28;5047943;28;20056;-67
2022/08/22 04:36:06;;;;;;;9.77;6.85;;;;;;;14.57;82.99;101488.28;5046752;28;20049;-69
2022/08/22 04:38:43;;;;;;;13.63;7.63;;;;;;;14.59;83.71;101484.41;5083367;28;20837;-66
2022/08/22 04:41:18;;;;;;;11.30;7.57;;;;;;;14.63;84.07;101485.03;5070614;28;20530;-66
2022/08/22 04:43:45;;;;;;;12.43;7.65;;;;;;;14.65;84.49;101477.59;5066447;28;20479;-66
2022/08/22 04:46:31;;;;;;;12.70;7.60;;;;;;;14.65;84.38;101477.59;5065968;28;20033;-66
2022/08/22 04:49:21;;;;;;;17.42;8.50;;;;;;;14.69;83.46;101488.19;5067136;28;20040;-66
2022/08/22 04:51:56;;;;;;;12.43;7.68;;;;;;;14.68;84.87;101486.41;5065305;28;20110;-69
2022/08/22 04:54:40;;;;;;;15.70;7.95;;;;;;;14.70;84.90;101486.31;5080815;28;20027;-67
2022/08/22 04:57:33;;;;;;;9.15;7.43;;;;;;;14.72;84.65;101489.78;5070371;28;20044;-67
2022/08/22 05:00:05;;;;;;;;;;;;;;;14.80;82.70;101499.16;5060806;28;20047;-66
2022/08/22 05:02:36;;;;;;;9.93;7.18;;;;;;;14.80;84.80;101503.75;5083383;28;19916;-67
2022/08/22 05:05:11;;;;;;;14.25;7.63;;;;;;;14.82;85.36;101507.22;5084849;28;20127;-67
2022/08/22 05:07:44;;;;;;;11.25;7.90;;;;;;;14.83;85.50;101500.78;5064542;28;20136;-67
2022/08/22 05:10:19;;;;;;;14.77;8.35;;;;;;;14.86;84.86;101496.91;5066762;28;20052;-67
2022/08/22 05:12:53;;;;;;;11.90;7.90;;;;;;;14.89;85.75;101505.75;5064932;28;20040;-66
2022/08/22 05:15:23;;;;;;;11.75;7.88;;;;;;;14.93;85.75;101501.78;5066161;28;20040;-66
2022/08/22 05:17:51;;;;;;;10.95;7.47;;;;;;;14.97;85.56;101506.03;5066495;28;20043;-68
2022/08/22 05:20:21;;;;;;;15.75;8.30;;;;;;;15.03;86.14;101501.91;5065849;28;20071;-68
2022/08/22 05:22:51;;;;;;;12.27;8.32;;;;;;;15.06;86.23;101507.13;5063732;28;20545;-68
2022/08/22 05:25:29;;;;;;;13.88;8.73;;;;;;;15.10;86.03;101502.28;5056080;28;20388;-66
2022/08/22 05:28:09;;;;;;;11.80;8.32;;;;;;;15.17;85.56;101503.53;5058911;28;20119;-67
2022/08/22 05:30:36;;;;;;;11.10;7.90;;;;;;;15.18;86.17;101500.66;5057847;28;20036;-67
2022/08/22 05:33:25;;;;;;;12.63;8.60;;;;;;;15.27;85.84;101516.38;5058936;28;20062;-66
2022/08/22 05:36:00;;;;;;;11.93;7.90;;;;;;;15.35;85.87;101525.84;5065138;28;20040;-66
2022/08/22 05:38:33;;;;;;;13.57;8.38;;;;;;;15.42;86.61;101521.59;5064250;28;20040;-67
2022/08/22 05:41:08;;;;;;;11.65;8.82;;;;;;;15.47;86.14;101516.59;5054544;28;20093;-66
2022/08/22 05:43:39;;;;;;;14.68;8.32;;;;;;;15.49;86.28;101517.34;5056413;28;20103;-67
2022/08/22 05:46:08;;;;;;;12.02;8.23;;;;;;;15.54;86.35;101518.72;5049427;28;20032;-66
2022/08/22 05:48:44;;;;;;;12.05;8.35;;;;;;;15.59;86.32;101520.22;5048638;28;20071;-67
2022/08/22 05:51:24;;;;;;;12.85;8.77;;;;;;;15.65;86.14;101517.84;5044987;28;20515;-67
2022/08/22 05:54:07;;;;;;;12.40;8.38;;;;;;;15.71;85.89;101516.44;5064535;28;20068;-66
2022/08/22 05:56:39;;;;;;;13.32;9.50;;;;;;;15.72;85.58;101520.97;5051572;28;20036;-66
2022/08/22 05:59:21;;;;;;;11.88;9.00;;;;;;;15.77;85.67;101515.97;5065735;28;20051;-66
2022/08/22 06:02:05;;;;;;;17.20;9.70;;;;;;;15.80;85.12;101510.19;5064781;28;20056;-67
2022/08/22 06:04:37;;;;;;;17.30;9.13;;;;;;;15.85;85.89;101513.44;5063457;28;20043;-67
2022/08/22 06:07:14;;;;;;;20.30;9.77;;;;;;;15.90;86.16;101513.03;5060281;28;20029;-67
2022/08/22 06:10:04;;;;;;;16.67;10.13;;;;;;;16.00;85.34;101514.03;5064831;28;20430;-66
2022/08/22 06:12:35;;;;;;;16.02;10.48;;;;;;;16.06;85.11;101513.50;5060835;28;20125;-66
2022/08/22 06:15:11;;;;;;;13.53;10.27;;;;;;;16.15;85.45;101515.47;5065834;28;20068;-66
2022/08/22 06:17:45;;;;;;;15.30;9.93;;;;;;;16.21;84.79;101517.69;5059663;28;20780;-66
2022/08/22 06:20:27;;;;;;;15.65;10.77;;;;;;;16.32;85.37;101525.03;5082291;28;20111;-66
2022/08/22 06:22:58;;;;;;;15.68;10.13;;;;;;;16.43;84.74;101521.34;5058778;28;20032;-67
2022/08/22 06:25:31;;;;;;;15.70;10.00;;;;;;;16.54;84.00;101524.00;5067837;28;20037;-66
2022/08/22 06:28:02;;;;;;;13.55;10.07;;;;;;;16.70;85.66;101526.31;5062854;28;20070;-67
2022/08/22 06:30:28;;;;;;;17.52;10.38;;;;;;;16.79;85.24;101522.78;5062876;28;20058;-67
2022/08/22 06:32:59;;;;;;;17.13;10.75;;;;;;;16.89;84.59;101526.47;5069491;28;20067;-67
2022/08/22 06:36:29;;;;;;;16.45;10.90;;;;;;;17.00;83.71;101525.50;5073006;28;20048;-67
2022/08/22 06:38:20;;;;;;;19.73;10.57;;;;;;;17.06;83.01;101530.44;5063379;28;20066;-66
2022/08/22 06:40:47;;;;;;;18.33;11.65;;;;;;;17.11;83.28;101530.03;5065102;28;20028;-67
2022/08/22 06:43:14;;;;;;;20.15;11.88;;;;;;;17.14;82.43;101529.78;5061875;28;20036;-66
2022/08/22 06:45:40;;;;;;;19.25;11.45;;;;;;;17.19;82.54;101536.59;5064292;28;20054;-67
2022/08/22 06:48:05;;;;;;;16.73;11.60;;;;;;;17.20;81.84;101534.72;5063952;28;20024;-67
2022/08/22 06:50:36;;;;;;;18.67;11.35;;;;;;;17.27;82.24;101533.19;5049679;28;20495;-67
2022/08/22 06:53:07;;;;;;;24.20;12.77;;;;;;;17.36;84.42;101540.59;5061566;28;20131;-66
2022/08/22 06:55:35;;;;;;;18.52;11.35;;;;;;;17.43;82.09;101546.41;5062515;28;20547;-67
2022/08/22 06:58:12;;;;;;;23.20;11.27;;;;;;;17.54;82.50;101552.69;5063113;28;20047;-66
2022/08/22 07:00:41;;;;;;;17.42;11.65;;;;;;;17.66;83.90;101556.19;5064705;28;20523;-67
2022/08/22 07:03:14;;;;;;;16.95;11.90;;;;;;;17.72;83.17;101547.41;5056249;28;20076;-66
2022/08/22 07:05:42;;;;;;;20.42;12.35;;;;;;;17.78;83.37;101548.75;5063000;28;20100;-66
2022/08/22 07:08:12;;;;;;;20.45;13.07;;;;;;;17.76;81.71;101548.00;5062577;28;20082;-66
2022/08/22 07:10:50;;;;;;;23.80;13.40;;;;;;;17.76;82.04;101548.00;5062537;28;20040;-68
2022/08/22 07:13:18;;;;;;;18.88;12.45;;;;;;;17.79;81.96;101544.97;5060949;28;20078;-65
2022/08/22 07:15:52;;;;;;;16.52;12.18;;;;;;;17.78;81.83;101543.25;5063657;28;20029;-65
2022/08/22 07:18:20;;;;;;;22.58;12.52;;;;;;;17.80;81.51;101555.84;5061880;28;20131;-68
2022/08/22 07:20:51;;;;;;;22.73;12.40;;;;;;;17.78;80.91;101554.25;5060015;28;20400;-66
2022/08/22 07:23:46;;;;;;;20.27;12.50;;;;;;;17.78;80.91;101543.25;5062458;28;20123;-65
2022/08/22 07:26:46;;;;;;;21.95;12.57;;;;;;;17.92;81.05;101547.47;5061756;28;20051;-67
2022/08/22 07:29:30;;;;;;;20.63;12.85;;;;;;;18.03;80.29;101548.22;5045371;28;20040;-66
2022/08/22 07:32:11;;;;;;;19.88;11.80;;;;;;;18.11;79.97;101550.25;5046070;28;20041;-65
2022/08/22 07:35:10;;;;;;;22.60;13.48;;;;;;;18.24;80.14;101545.34;5065030;28;20055;-66
2022/08/22 07:38:03;;;;;;;22.02;12.85;;;;;;;18.30;79.30;101543.91;5055967;28;20147;-67
2022/08/22 07:41:00;;;;;;;17.10;12.13;;;;;;;18.48;79.64;101535.78;5068721;28;20511;-66
2022/08/22 07:43:46;;;;;;;20.38;12.07;;;;;;;18.67;79.88;101530.25;5050563;28;20067;-66
2022/08/22 07:46:26;;;;;;;23.13;12.35;;;;;;;18.82;78.33;101526.03;5069217;28;20055;-66
2022/08/22 07:49:09;;;;;;;22.20;11.90;;;;;;;18.92;78.13;101522.41;5068405;28;20064;-66
2022/08/22 07:51:43;;;;;;;21.85;12.38;;;;;;;19.13;77.62;101528.59;5048081;28;20416;-65
2022/08/22 07:54:13;;;;;;;17.60;11.23;;;;;;;19.52;75.61;101528.44;5066409;28;20073;-66
2022/08/22 07:56:50;;;;;;;21.92;12.10;;;;;;;19.74;72.98;101527.19;5066595;28;20044;-65
2022/08/22 07:59:18;;;;;;;19.88;12.20;;;;;;;19.92;74.43;101527.22;5068618;28;20036;-69
2022/08/22 08:01:47;;;;;;;20.63;12.25;;;;;;;19.98;74.11;101538.50;5067817;28;20074;-66
2022/08/22 08:04:22;;;;;;;16.48;12.63;;;;;;;20.07;73.58;101525.66;5068633;28;20037;-66
2022/08/22 08:06:51;;;;;;;18.80;10.73;;;;;;;20.10;73.95;101523.47;5067001;28;20078;-66
2022/08/22 08:09:19;;;;;;;20.52;12.25;;;;;;;20.21;72.99;101521.50;5067140;28;20044;-66
2022/08/22 08:11:47;;;;;;;17.17;11.23;;;;;;;20.41;72.47;101520.28;5065892;28;20408;-67
2022/08/22 08:14:15;;;;;;;20.88;12.48;;;;;;;20.61;72.16;101519.13;5068570;28;20097;-66
2022/08/22 08:16:59;;;;;;;19.73;12.77;;;;;;;20.79;72.47;101520.97;5068166;28;20734;-66
2022/08/22 08:19:26;;;;;;;22.73;12.95;;;;;;;20.95;70.12;101518.34;5083591;28;20173;-66
2022/08/22 08:21:54;;;;;;;21.85;11.75;;;;;;;21.11;68.51;101512.91;5075229;28;20029;-69
2022/08/22 08:24:25;;;;;;;24.15;11.75;;;;;;;21.28;68.51;101508.34;5067184;28;20044;-67
2022/08/22 08:29:44;;;;;;;20.13;12.18;;;;;;;21.63;68.17;101510.06;5068207;28;20044;-67
2022/08/22 08:32:11;;;;;;;21.50;11.60;;;;;;;21.81;65.73;101498.88;5066507;28;20256;-66
2022/08/22 08:34:39;;;;;;;24.25;12.13;;;;;;;22.00;66.00;101497.72;5067715;28;20040;-66
2022/08/22 08:37:16;;;;;;;22.65;11.50;;;;;;;22.20;66.44;101509.44;5065987;28;20119;-66
2022/08/22 08:39:48;;;;;;;15.95;11.95;;;;;;;22.42;64.76;101507.88;5067888;28;20543;-66
2022/08/22 08:42:16;;;;;;;18.80;10.48;;;;;;;22.62;61.81;101508.41;5065809;28;20452;-66
2022/08/22 08:45:06;;;;;;;22.02;11.65;;;;;;;22.74;64.42;101504.22;5068242;28;20048;-66
2022/08/22 08:48:02;;;;;;;14.50;10.15;;;;;;;23.06;64.31;101503.34;5066965;28;20549;-66
2022/08/22 08:51:21;;;;;;;18.60;9.27;;;;;;;23.12;63.74;101499.84;5065175;28;20102;-67
2022/08/22 08:54:05;;;;;;;14.10;9.35;;;;;;;23.13;62.50;101501.59;5042715;28;20040;-66
2022/08/22 08:56:43;;;;;;;19.63;10.27;;;;;;;23.28;61.16;101498.97;5057312;28;20066;-67
2022/08/22 08:59:29;;;;;;;15.25;9.45;;;;;;;23.33;62.89;101499.28;5051727;28;20043;-65
2022/08/22 09:02:27;;;;;;;15.05;8.25;;;;;;;23.45;62.41;101496.97;5065957;28;20071;-66
2022/08/22 09:05:07;;;;;;;16.90;9.40;;;;;;;23.50;60.01;101490.88;5043837;28;20114;-68
2022/08/22 09:07:47;;;;;;;17.42;9.63;;;;;;;23.45;62.02;101491.41;5064099;28;20047;-66
2022/08/22 09:10:37;;;;;;;16.00;9.82;;;;;;;23.59;61.75;101484.25;5067535;28;20086;-66
2022/08/22 09:13:17;;;;;;;15.85;9.80;;;;;;;23.63;59.13;101483.69;5064528;28;20033;-66
2022/08/22 09:16:09;;;;;;;15.02;8.50;;;;;;;23.79;62.74;101490.28;5067840;28;20479;-66
2022/08/22 09:18:52;;;;;;;18.25;9.63;;;;;;;24.00;60.81;101482.13;5065771;28;20032;-67
2022/08/22 09:21:55;;;;;;;19.02;9.15;;;;;;;24.15;61.23;101487.75;5065600;28;20025;-65
2022/08/22 09:24:20;;;;;;;;;;;;;;;24.26;62.32;101483.72;5046466;28;20036;-66
2022/08/22 09:26:53;;;;;;;16.50;10.27;;;;;;;24.27;59.44;101479.88;5054278;28;19918;-66
2022/08/22 09:29:33;;;;;;;14.70;10.02;;;;;;;24.30;60.14;101485.06;5066809;28;20040;-66
2022/08/22 09:32:17;;;;;;;23.83;10.07;;;;;;;24.19;56.35;101480.78;5065120;28;20376;-66
2022/08/22 09:35:15;;;;;;;18.05;9.52;;;;;;;24.16;57.47;101484.81;5066058;28;20051;-67
2022/08/22 09:37:56;;;;;;;18.40;9.88;;;;;;;24.14;57.25;101486.91;5064108;28;20040;-68
2022/08/22 09:40:36;;;;;;;18.58;10.48;;;;;;;24.29;58.68;101483.31;5066441;28;20055;-66
2022/08/22 09:43:23;;;;;;;20.58;10.63;;;;;;;24.43;59.01;101479.75;5064035;28;20044;-66
2022/08/22 09:45:58;;;;;;;18.88;10.27;;;;;;;24.51;59.69;101488.03;5066714;28;20028;-67
2022/08/22 09:48:29;;;;;;;15.63;8.85;;;;;;;24.62;56.39;101481.16;5064221;28;20055;-66
2022/08/22 09:51:00;;;;;;;14.60;7.30;;;;;;;24.69;54.31;101485.78;5066109;28;20047;-66
2022/08/22 09:53:47;;;;;;;14.43;7.53;;;;;;;24.75;56.93;101483.31;5064107;28;20128;-66
2022/08/22 09:56:22;;;;;;;13.55;7.80;;;;;;;24.90;55.36;101481.41;5065335;28;20086;-66
2022/08/22 09:58:50;;;;;;;14.90;6.25;;;;;;;25.01;53.71;101489.31;5064846;28;20033;-65
2022/08/22 10:01:30;;;;;;;12.15;5.90;;;;;;;25.07;55.63;101482.13;5065169;28;20056;-65
2022/08/22 10:04:13;;;;;;;14.00;5.28;;;;;;;25.13;53.79;101478.59;5066046;28;20063;-66
2022/08/22 10:07:11;;;;;;;11.95;4.90;;;;;;;25.22;53.85;101473.78;5064584;28;20369;-65
2022/08/22 10:09:55;;;;;;;11.32;4.05;;;;;;;25.42;52.05;101473.03;5065379;28;20059;-65
2022/08/22 10:12:30;;;;;;;10.90;4.72;;;;;;;25.68;50.73;101466.94;5063724;28;20551;-66
2022/08/22 10:15:14;;;;;;;10.98;3.50;;;;;;;25.88;48.91;101461.66;5066185;28;20377;-66
2022/08/22 10:17:51;;;;;;;9.25;3.10;;;;;;;26.23;50.15;101464.56;5065871;28;20135;-67
2022/08/22 10:20:28;;;;;;;9.05;3.85;;;;;;;26.20;48.83;101460.25;5065179;28;20040;-70
2022/08/22 10:23:18;;;;;;;14.05;4.18;;;;;;;26.23;50.28;101458.13;5063014;28;20074;-65
2022/08/22 10:25:52;;;;;;;8.90;3.42;;;;;;;26.34;49.24;101452.00;5064345;28;20039;-70
2022/08/22 10:28:49;;;;;;;14.75;3.75;;;;;;;26.50;50.09;101454.56;5058447;28;20044;-65
2022/08/22 10:31:42;;;;;;;8.23;3.33;;;;;;;26.71;49.08;101459.25;5066532;28;20103;-66
2022/08/22 10:34:10;;;;;;;6.68;3.70;;;;;;;26.66;46.23;101448.69;5065563;28;20067;-66
2022/08/22 10:36:48;;;;;;;12.07;3.72;;;;;;;26.92;46.86;101449.97;5064441;28;20053;-66
2022/08/22 10:39:46;;;;;;;10.60;3.90;;;;;;;27.01;47.56;101447.88;5065213;28;20094;-66
2022/08/22 10:42:26;;;;;;;8.23;4.57;;;;;;;26.93;46.02;101451.69;5062787;28;20151;-65
2022/08/22 10:45:18;;;;;;;11.32;4.35;;;;;;;27.04;47.39;101445.50;5065658;28;20037;-65
2022/08/22 10:48:04;;;;;;;;;;;;;;;27.45;48.76;101436.31;5066453;28;20044;-65
2022/08/22 10:50:43;;;;;;;11.77;3.78;;;;;;;27.50;45.27;101433.75;5053881;28;20077;-66
2022/08/22 10:53:30;;;;;;;10.38;3.58;;;;;;;27.80;45.14;101430.69;5062295;28;20392;-69
2022/08/22 10:56:18;;;;;;;6.57;2.88;;;;;;;27.97;43.20;101438.47;5045910;28;20037;-65
2022/08/22 10:58:53;;;;;;;10.75;3.17;;;;;;;28.28;41.58;101437.03;5064856;28;20056;-65
2022/08/22 11:01:23;;;;;;;10.05;2.95;;;;;;;28.21;41.57;101433.34;5065568;28;20078;-65
2022/08/22 11:04:04;;;;;;;12.25;3.00;;;;;;;28.25;42.47;101425.41;5062743;28;20045;-66
2022/08/22 11:06:44;;;;;;;10.35;2.92;;;;;;;28.10;42.46;101425.59;5064049;28;20115;-66
2022/08/22 11:09:39;;;;;;;7.88;3.15;;;;;;;27.88;43.81;101431.34;5064311;28;20036;-69
2022/08/22 11:12:18;;;;;;;8.20;2.80;;;;;;;28.17;43.19;101427.34;5063110;28;20033;-65
2022/08/22 11:14:59;;;;;;;8.88;3.55;;;;;;;27.87;41.31;101435.22;5070111;28;20399;-67
2022/08/22 11:17:31;;;;;;;12.15;3.70;;;;;;;27.85;41.66;101429.00;5069022;28;20036;-65
2022/08/22 11:20:12;;;;;;;8.32;2.90;;;;;;;27.63;42.29;101431.03;5080959;28;20043;-65
2022/08/22 11:23:10;;;;;;;7.88;3.25;;;;;;;27.67;45.47;101435.13;5070677;28;20044;-66
2022/08/22 11:26:08;;;;;;;8.68;3.42;;;;;;;27.78;44.66;101419.72;5067397;28;20036;-65
2022/08/22 11:28:46;;;;;;;9.38;3.45;;;;;;;27.63;43.19;101421.78;5063294;28;20032;-66
2022/08/22 11:31:30;;;;;;;9.43;3.30;;;;;;;27.63;42.95;101421.78;5068049;28;20058;-65
2022/08/22 11:34:25;;;;;;;9.20;3.30;;;;;;;27.46;43.09;101416.53;5068541;28;20040;-65
2022/08/22 11:37:06;;;;;;;13.40;3.75;;;;;;;27.53;44.63;101418.53;5079620;28;20503;-66
2022/08/22 11:40:00;;;;;;;8.17;3.00;;;;;;;27.63;43.96;101421.78;5076750;28;20566;-66
2022/08/22 11:43:06;;;;;;;9.13;3.80;;;;;;;27.54;44.59;101417.44;5072140;28;20043;-65
2022/08/22 11:45:41;;;;;;;7.55;3.20;;;;;;;27.45;44.59;101420.41;5026193;28;20127;-66
2022/08/22 11:48:25;;;;;;;9.73;2.83;;;;;;;27.51;41.45;101420.66;5045440;28;20063;-67
2022/08/22 11:51:03;;;;;;;9.50;2.60;;;;;;;27.60;43.99;101409.06;5068258;28;20504;-66
2022/08/22 11:53:31;;;;;;;10.45;3.55;;;;;;;27.44;41.95;101409.44;5065937;28;20047;-67
2022/08/22 11:56:31;;;;;;;8.57;2.83;;;;;;;27.45;43.84;101408.38;5065301;28;20032;-65
2022/08/22 11:59:06;;;;;;;6.80;2.53;;;;;;;27.17;38.20;101411.25;5066014;28;20061;-65
2022/08/22 12:01:41;;;;;;;8.23;2.63;;;;;;;26.99;42.02;101413.69;5068242;28;20705;-65
2022/08/22 12:04:14;;;;;;;7.88;2.72;;;;;;;27.13;43.47;101413.59;5068111;28;20123;-65
2022/08/22 12:07:11;;;;;;;6.57;2.67;;;;;;;27.21;44.83;101407.84;5067051;28;20025;-66
2022/08/22 12:09:50;;;;;;;7.38;2.67;;;;;;;27.25;43.74;101410.22;5067691;28;20090;-65
2022/08/22 12:12:15;;;;;;;13.93;2.67;;;;;;;27.23;43.53;101407.63;5066078;28;20032;-66
2022/08/22 12:14:46;;;;;;;10.68;2.80;;;;;;;27.17;43.37;101411.25;5069607;28;20078;-65
2022/08/22 12:17:47;;;;;;;10.85;2.70;;;;;;;27.17;42.85;101408.47;5073306;28;20856;-66
2022/08/22 12:20:34;;;;;;;5.50;2.00;;;;;;;27.25;43.87;101413.88;5082850;28;20036;-66
2022/08/22 12:23:36;;;;;;;6.05;2.70;;;;;;;27.23;44.57;101410.41;5072120;28;20036;-65
2022/08/22 12:26:24;;;;;;;4.50;2.35;;;;;;;27.07;44.34;101403.22;5084408;28;20482;-66